createdAt,value
2022-10-29T00:01:32.411Z,99060.06
2022-10-29T00:04:33.813Z,99063.53
2022-10-29T00:07:35.167Z,99067.91
2022-10-29T00:10:36.498Z,99066.16
2022-10-29T00:13:37.985Z,99074.88
2022-10-29T00:16:39.404Z,99063.53
2022-10-29T00:19:40.773Z,99068.75
2022-10-29T00:22:42.166Z,99063.50
2022-10-29T00:25:43.512Z,99053.06
2022-10-29T00:28:44.868Z,99060.03
2022-10-29T00:31:46.315Z,99051.31
2022-10-29T00:34:47.770Z,99037.38
2022-10-29T00:37:49.104Z,99048.72
2022-10-29T00:40:50.443Z,99038.25
2022-10-29T00:44:10.579Z,99046.94
2022-10-29T00:47:11.889Z,99051.28
2022-10-29T00:50:13.249Z,99050.38
2022-10-29T00:53:15.562Z,99054.78
2022-10-29T00:56:16.940Z,99053.88
2022-10-29T00:59:18.327Z,99052.13
2022-10-29T01:02:19.760Z,99048.63
2022-10-29T01:05:21.686Z,99052.97
2022-10-29T01:08:23.045Z,99042.53
2022-10-29T01:11:41.114Z,99044.28
2022-10-29T01:14:54.624Z,99049.47
2022-10-29T01:18:08.326Z,99048.59
2022-10-29T01:21:22.165Z,99037.28
2022-10-29T01:24:27.988Z,99026.81
2022-10-29T01:27:49.564Z,99032.06
2022-10-29T01:31:04.174Z,99032.94
2022-10-29T01:34:13.337Z,99033.81
2022-10-29T01:37:17.615Z,99032.94
2022-10-29T01:40:18.907Z,99033.84
2022-10-29T01:43:23.265Z,99027.72
2022-10-29T01:46:25.992Z,99030.34
2022-10-29T01:49:28.770Z,99032.09
2022-10-29T01:52:32.327Z,99016.44
2022-10-29T01:55:36.789Z,99015.59
2022-10-29T01:58:38.182Z,99012.97
2022-10-29T02:01:59.793Z,99013.84
2022-10-29T02:05:04.298Z,99006.88
2022-10-29T02:08:24.617Z,99007.75
2022-10-29T02:11:27.409Z,99011.22
2022-10-29T02:14:37.926Z,98999.91
2022-10-29T02:17:39.253Z,98997.28
2022-10-29T02:20:44.361Z,98992.94
2022-10-29T02:23:45.736Z,98999.91
2022-10-29T02:26:47.067Z,98985.09
2022-10-29T02:29:48.414Z,98980.72
2022-10-29T02:32:49.805Z,98978.09
2022-10-29T02:35:51.160Z,98980.72
2022-10-29T02:38:52.515Z,98974.59
2022-10-29T02:41:54.483Z,98974.59
2022-10-29T02:44:55.859Z,98974.59
2022-10-29T02:47:57.500Z,98962.41
2022-10-29T02:50:59.127Z,98965.91
2022-10-29T02:54:00.489Z,98959.78
2022-10-29T02:57:01.865Z,98968.47
2022-10-29T03:00:03.596Z,98960.66
2022-10-29T03:03:05.005Z,98958.03
2022-10-29T03:06:11.920Z,98950.22
2022-10-29T03:09:13.255Z,98940.63
2022-10-29T03:12:14.566Z,98939.72
2022-10-29T03:15:15.929Z,98936.25
2022-10-29T03:18:17.307Z,98942.34
2022-10-29T03:21:18.664Z,98941.47
2022-10-29T03:24:20.040Z,98933.63
2022-10-29T03:27:21.371Z,98937.13
2022-10-29T03:30:22.741Z,98930.13
2022-10-29T03:33:25.903Z,98928.41
2022-10-29T03:36:27.538Z,98923.16
2022-10-29T03:39:28.936Z,98926.63
2022-10-29T03:42:33.207Z,98927.50
2022-10-29T03:45:34.577Z,98930.97
2022-10-29T03:48:35.959Z,98934.47
2022-10-29T03:51:37.303Z,98934.44
2022-10-29T03:54:38.633Z,98932.66
2022-10-29T03:57:39.979Z,98927.44
2022-10-29T04:00:41.433Z,98930.94
2022-10-29T04:03:43.994Z,98926.59
2022-10-29T04:06:45.317Z,98928.31
2022-10-29T04:09:46.746Z,98925.69
2022-10-29T04:12:48.170Z,98929.16
2022-10-29T04:15:53.008Z,98935.25
2022-10-29T04:18:54.369Z,98926.56
2022-10-29T04:28:42.941Z,98932.63
2022-10-29T04:31:44.737Z,98930.91
2022-10-29T04:34:46.120Z,98935.22
2022-10-29T04:37:47.532Z,98938.69
2022-10-29T04:40:48.865Z,98935.16
2022-10-29T04:43:50.230Z,98933.44
2022-10-29T04:46:51.606Z,98928.19
2022-10-29T04:49:52.977Z,98936.03
2022-10-29T04:52:57.680Z,98937.75
2022-10-29T04:56:00.381Z,98928.19
2022-10-29T04:59:01.717Z,98932.56
2022-10-29T05:02:03.043Z,98929.94
2022-10-29T05:05:04.522Z,98925.56
2022-10-29T05:08:06.281Z,98921.25
2022-10-29T05:11:07.601Z,98922.13
2022-10-29T05:14:09.044Z,98916.00
2022-10-29T05:17:10.409Z,98913.41
2022-10-29T05:20:11.779Z,98912.50
2022-10-29T05:23:13.135Z,98909.94
2022-10-29T05:26:14.479Z,98909.03
2022-10-29T05:29:15.855Z,98907.28
2022-10-29T05:32:17.180Z,98911.63
2022-10-29T05:35:18.526Z,98905.53
2022-10-29T05:38:19.931Z,98910.75
2022-10-29T05:41:21.276Z,98910.75
2022-10-29T05:44:22.631Z,98913.31
2022-10-29T05:47:24.026Z,98903.75
2022-10-29T05:50:25.467Z,98912.41
2022-10-29T05:53:26.885Z,98914.16
2022-10-29T05:56:28.238Z,98924.56
2022-10-29T05:59:32.753Z,98915.88
2022-10-29T06:02:35.245Z,98917.56
2022-10-29T06:05:36.740Z,98912.41
2022-10-29T06:08:38.070Z,98917.59
2022-10-29T06:11:39.557Z,98912.34
2022-10-29T06:14:40.883Z,98918.41
2022-10-29T06:17:42.509Z,98924.50
2022-10-29T06:20:44.011Z,98919.28
2022-10-29T06:23:45.585Z,98914.94
2022-10-29T06:26:47.089Z,98921.91
2022-10-29T06:29:48.477Z,98923.66
2022-10-29T06:32:49.808Z,98926.22
2022-10-29T06:35:51.362Z,98926.22
2022-10-29T06:38:52.688Z,98928.00
2022-10-29T06:41:54.044Z,98924.50
2022-10-29T06:44:55.393Z,98929.69
2022-10-29T06:47:57.101Z,98919.28
2022-10-29T06:50:59.723Z,98924.53
2022-10-29T06:54:01.130Z,98926.31
2022-10-29T06:57:02.466Z,98924.56
2022-10-29T07:00:07.598Z,98923.72
2022-10-29T07:03:13.829Z,98924.63
2022-10-29T07:06:15.163Z,98922.88
2022-10-29T07:09:16.517Z,98931.63
2022-10-29T07:12:17.840Z,98924.69
2022-10-29T07:15:19.226Z,98936.91
2022-10-29T07:18:20.617Z,98935.19
2022-10-29T07:21:21.971Z,98938.72
2022-10-29T07:24:23.306Z,98939.63
2022-10-29T07:27:24.753Z,98942.25
2022-10-29T07:30:26.169Z,98944.00
2022-10-29T07:33:28.164Z,98945.75
2022-10-29T07:36:32.449Z,98944.88
2022-10-29T07:39:33.893Z,98948.38
2022-10-29T07:42:35.330Z,98954.50
2022-10-29T07:45:36.715Z,98952.81
2022-10-29T07:48:38.770Z,98954.53
2022-10-29T07:51:40.186Z,98951.94
2022-10-29T07:54:41.611Z,98950.19
2022-10-29T07:57:42.930Z,98953.69
2022-10-29T08:00:44.327Z,98961.56
2022-10-29T08:03:45.728Z,98966.72
2022-10-29T08:06:47.088Z,98980.63
2022-10-29T08:09:48.455Z,98987.53
2022-10-29T08:12:53.621Z,99000.38
2022-10-29T08:15:55.199Z,99040.00
2022-10-29T08:18:56.559Z,99081.16
2022-10-29T08:21:57.948Z,99129.88
2022-10-29T08:24:59.339Z,99158.75
2022-10-29T08:28:01.299Z,99157.84
2022-10-29T08:31:02.698Z,99164.38
2022-10-29T08:34:08.463Z,99162.84
2022-10-29T08:37:12.185Z,99149.91
2022-10-29T08:40:20.021Z,99145.44
2022-10-29T08:43:44.586Z,99153.69
2022-10-29T08:46:49.808Z,99148.00
2022-10-29T08:50:07.046Z,99146.97
2022-10-29T08:53:24.125Z,99151.50
2022-10-29T08:56:28.269Z,99149.84
2022-10-29T08:59:29.900Z,99154.09
2022-10-29T09:02:31.235Z,99138.28
2022-10-29T09:05:33.294Z,99143.75
2022-10-29T09:08:44.366Z,99146.88
2022-10-29T09:11:55.697Z,99136.75
2022-10-29T09:14:57.034Z,99133.13
2022-10-29T09:18:05.208Z,99131.91
2022-10-29T09:21:22.267Z,99137.78
2022-10-29T09:24:29.677Z,99134.41
2022-10-29T09:27:37.008Z,99138.59
2022-10-29T09:30:58.667Z,99136.34
2022-10-29T09:34:02.717Z,99134.25
2022-10-29T09:37:04.888Z,99133.69
2022-10-29T09:40:06.919Z,99142.34
2022-10-29T09:43:13.457Z,99141.72
2022-10-29T09:46:22.343Z,99137.25
2022-10-29T09:49:42.348Z,99126.38
2022-10-29T09:52:43.909Z,99137.22
2022-10-29T09:55:45.474Z,99144.34
2022-10-29T09:58:47.401Z,99145.75
2022-10-29T10:01:48.957Z,99142.66
2022-10-29T10:04:51.074Z,99136.97
2022-10-29T10:08:07.721Z,99138.91
2022-10-29T10:11:09.043Z,99131.38
2022-10-29T10:14:14.891Z,99130.00
2022-10-29T10:17:16.290Z,99127.06
2022-10-29T10:20:27.879Z,99117.13
2022-10-29T10:23:29.234Z,99123.56
2022-10-29T10:26:31.705Z,99118.97
2022-10-29T10:29:33.055Z,99113.75
2022-10-29T10:32:34.616Z,99102.78
2022-10-29T10:35:35.998Z,99100.06
2022-10-29T10:38:40.968Z,99095.22
2022-10-29T10:41:42.293Z,99099.97
2022-10-29T10:44:52.269Z,99096.13
2022-10-29T10:47:58.839Z,99094.16
2022-10-29T10:51:19.323Z,99079.41
2022-10-29T10:54:27.033Z,99074.41
2022-10-29T10:57:36.338Z,99080.50
2022-10-29T11:00:39.563Z,99076.94
2022-10-29T11:03:48.144Z,99068.97
2022-10-29T11:06:49.981Z,99068.63
2022-10-29T11:09:51.317Z,99068.81
2022-10-29T11:12:54.314Z,99065.34
2022-10-29T11:15:56.960Z,99065.25
2022-10-29T11:19:05.676Z,99058.31
2022-10-29T11:22:25.805Z,99047.31
2022-10-29T11:25:29.685Z,99046.78
2022-10-29T11:28:38.510Z,99045.94
2022-10-29T11:31:39.788Z,99035.66
2022-10-29T11:34:52.408Z,99029.50
2022-10-29T11:37:56.955Z,99025.97
2022-10-29T11:41:05.079Z,99013.91
2022-10-29T11:44:12.778Z,99014.06
2022-10-29T11:47:14.082Z,99008.59
2022-10-29T11:50:22.182Z,98998.97
2022-10-29T11:53:32.552Z,98986.28
2022-10-29T11:56:39.338Z,98987.81
2022-10-29T11:59:49.965Z,98989.44
2022-10-29T12:03:11.578Z,98984.81
2022-10-29T12:06:22.601Z,98979.16
2022-10-29T12:09:29.811Z,98976.44
2022-10-29T12:12:34.616Z,98971.03
2022-10-29T12:15:37.935Z,98964.44
2022-10-29T12:18:39.224Z,98964.97
2022-10-29T12:21:43.735Z,98958.41
2022-10-29T12:24:45.048Z,98950.91
2022-10-29T12:28:05.205Z,98957.72
2022-10-29T12:31:29.788Z,98952.00
2022-10-29T12:34:31.947Z,98947.50
2022-10-29T12:38:11.853Z,98935.19
2022-10-29T12:41:17.557Z,98935.03
2022-10-29T12:44:22.214Z,98941.88
2022-10-29T12:47:23.504Z,98932.38
2022-10-29T12:50:24.793Z,98932.81
2022-10-29T12:53:49.398Z,98925.75
2022-10-29T12:56:50.762Z,98928.47
2022-10-29T12:59:52.155Z,98924.28
2022-10-29T13:02:54.686Z,98923.31
2022-10-29T13:05:56.342Z,98924.19
2022-10-29T13:08:57.680Z,98933.25
2022-10-29T13:12:02.506Z,98927.47
2022-10-29T13:15:04.714Z,98927.25
2022-10-29T13:18:08.232Z,98932.28
2022-10-29T13:21:09.598Z,98918.31
2022-10-29T13:24:13.367Z,98923.09
2022-10-29T13:27:17.792Z,98920.72
2022-10-29T13:30:21.425Z,98931.38
2022-10-29T13:33:28.921Z,98930.59
2022-10-29T13:36:36.486Z,98928.47
2022-10-29T13:39:37.855Z,98927.00
2022-10-29T13:42:39.194Z,98918.38
2022-10-29T13:45:41.238Z,98920.72
2022-10-29T13:48:42.569Z,98917.88
2022-10-29T13:51:45.240Z,98915.28
2022-10-29T13:54:50.697Z,98915.22
2022-10-29T13:57:57.171Z,98914.66
2022-10-29T14:00:58.850Z,98915.56
2022-10-29T14:04:11.276Z,98914.22
2022-10-29T14:07:14.444Z,98915.78
2022-10-29T14:10:20.538Z,98914.06
2022-10-29T14:13:32.158Z,98912.91
2022-10-29T14:16:33.680Z,98906.41
2022-10-29T14:19:35.010Z,98909.25
2022-10-29T14:22:39.576Z,98915.31
2022-10-29T14:25:40.918Z,98912.38
2022-10-29T14:28:42.316Z,98910.66
2022-10-29T14:31:43.658Z,98912.84
2022-10-29T14:34:45.416Z,98911.53
2022-10-29T14:37:46.774Z,98909.94
2022-10-29T14:40:48.171Z,98909.25
2022-10-29T14:44:21.977Z,98905.13
2022-10-29T14:47:28.920Z,98903.84
2022-10-29T14:50:33.698Z,98904.09
2022-10-29T14:53:35.167Z,98903.75
2022-10-29T14:56:37.159Z,98907.31
2022-10-29T14:59:38.556Z,98904.00
2022-10-29T15:02:40.068Z,98903.50
2022-10-29T15:05:41.539Z,98909.91
2022-10-29T15:08:43.607Z,98901.19
2022-10-29T15:11:49.047Z,98905.88
2022-10-29T15:14:50.838Z,98899.31
2022-10-29T15:17:52.656Z,98900.66
2022-10-29T15:20:54.816Z,98893.22
2022-10-29T15:23:58.097Z,98892.13
2022-10-29T15:27:00.229Z,98882.78
2022-10-29T15:30:01.589Z,98874.22
2022-10-29T15:33:03.852Z,98873.16
2022-10-29T15:36:05.395Z,98864.69
2022-10-29T15:39:08.005Z,98849.31
2022-10-29T15:42:14.336Z,98855.94
2022-10-29T15:45:17.116Z,98845.84
2022-10-29T15:48:28.502Z,98839.47
2022-10-29T15:51:30.419Z,98833.56
2022-10-29T15:54:31.836Z,98827.00
2022-10-29T15:57:33.284Z,98823.03
2022-10-29T16:00:34.716Z,98819.00
2022-10-29T16:03:39.278Z,98814.94
2022-10-29T16:06:40.843Z,98818.03
2022-10-29T16:09:46.155Z,98806.13
2022-10-29T16:12:48.354Z,98804.69
2022-10-29T16:15:49.833Z,98794.31
2022-10-29T16:18:51.923Z,98793.00
2022-10-29T16:21:58.209Z,98793.38
2022-10-29T16:25:02.206Z,98783.03
2022-10-29T16:28:03.657Z,98785.97
2022-10-29T16:31:05.994Z,98784.44
2022-10-29T16:34:09.215Z,98783.84
2022-10-29T16:37:11.513Z,98778.81
2022-10-29T16:40:12.960Z,98780.78
2022-10-29T16:43:14.468Z,98780.97
2022-10-29T16:46:15.911Z,98782.13
2022-10-29T16:49:17.353Z,98774.53
2022-10-29T16:52:22.351Z,98775.59
2022-10-29T16:55:25.815Z,98781.13
2022-10-29T16:58:27.179Z,98779.59
2022-10-29T17:01:28.513Z,98773.59
2022-10-29T17:04:29.981Z,98782.50
2022-10-29T17:07:31.354Z,98790.53
2022-10-29T17:10:32.794Z,98790.78
2022-10-29T17:13:34.415Z,98794.47
2022-10-29T17:19:42.118Z,98790.34
2022-10-29T17:22:43.511Z,98789.69
2022-10-29T17:25:44.848Z,98785.38
2022-10-29T17:28:46.211Z,98784.59
2022-10-29T17:31:47.567Z,98785.56
2022-10-29T17:34:48.944Z,98786.47
2022-10-29T17:37:50.263Z,98780.44
2022-10-29T17:40:51.632Z,98783.25
2022-10-29T17:43:52.978Z,98786.84
2022-10-29T17:46:54.696Z,98792.31
2022-10-29T17:49:56.199Z,98794.06
2022-10-29T17:53:00.544Z,98788.81
2022-10-29T17:56:01.932Z,98787.13
2022-10-29T17:59:03.293Z,98792.56
2022-10-29T18:02:04.729Z,98792.72
2022-10-29T18:05:06.760Z,98802.41
2022-10-29T18:08:08.126Z,98791.03
2022-10-29T18:11:17.071Z,98794.63
2022-10-29T18:14:18.500Z,98793.03
2022-10-29T18:17:19.841Z,98787.84
2022-10-29T18:20:21.187Z,98795.00
2022-10-29T18:23:22.558Z,98794.25
2022-10-29T18:26:28.063Z,98796.06
2022-10-29T18:29:29.425Z,98789.97
2022-10-29T18:32:30.756Z,98790.84
2022-10-29T18:35:32.154Z,98791.78
2022-10-29T18:38:33.528Z,98799.72
2022-10-29T18:41:34.866Z,98804.19
2022-10-29T18:44:38.278Z,98796.44
2022-10-29T18:47:39.595Z,98789.63
2022-10-29T18:50:40.963Z,98784.50
2022-10-29T18:53:42.309Z,98793.25
2022-10-29T18:56:43.724Z,98785.44
2022-10-29T18:59:46.106Z,98785.59
2022-10-29T19:02:47.561Z,98789.19
2022-10-29T19:05:49.021Z,98785.75
2022-10-29T19:08:50.586Z,98782.31
2022-10-29T19:11:55.263Z,98776.31
2022-10-29T19:14:59.762Z,98769.34
2022-10-29T19:18:01.147Z,98772.03
2022-10-29T19:21:03.581Z,98775.59
2022-10-29T19:24:05.260Z,98778.28
2022-10-29T19:27:06.590Z,98771.38
2022-10-29T19:30:08.262Z,98771.44
2022-10-29T19:33:09.903Z,98765.41
2022-10-29T19:36:11.535Z,98766.28
2022-10-29T19:39:12.939Z,98761.06
2022-10-29T19:42:14.361Z,98762.84
2022-10-29T19:45:15.906Z,98762.91
2022-10-29T19:48:17.898Z,98762.91
2022-10-29T19:51:19.376Z,98763.84
2022-10-29T19:54:20.837Z,98760.38
2022-10-29T19:57:22.585Z,98762.13
2022-10-29T20:00:24.058Z,98760.38
2022-10-29T20:03:25.407Z,98763.03
2022-10-29T20:06:26.810Z,98766.56
2022-10-29T20:09:28.194Z,98759.66
2022-10-29T20:12:29.523Z,98763.13
2022-10-29T20:15:30.942Z,98769.31
2022-10-29T20:18:32.304Z,98764.94
2022-10-29T20:21:33.637Z,98771.09
2022-10-29T20:24:35.041Z,98768.53
2022-10-29T20:27:36.409Z,98769.41
2022-10-29T20:30:37.806Z,98772.03
2022-10-29T20:33:39.186Z,98768.59
2022-10-29T20:36:40.789Z,98772.09
2022-10-29T20:39:42.297Z,98772.09
2022-10-29T20:42:43.720Z,98776.47
2022-10-29T20:45:45.175Z,98775.59
2022-10-29T20:48:46.545Z,98777.38
2022-10-29T20:51:47.931Z,98781.75
2022-10-29T20:54:49.467Z,98777.41
2022-10-29T20:57:50.827Z,98778.25
2022-10-29T21:00:52.273Z,98787.88
2022-10-29T21:03:53.673Z,98783.53
2022-10-29T21:06:55.037Z,98794.03
2022-10-29T21:09:56.449Z,98787.94
2022-10-29T21:12:59.842Z,98791.41
2022-10-29T21:16:14.071Z,98783.59
2022-10-29T21:19:15.502Z,98787.09
2022-10-29T21:22:19.133Z,98787.94
2022-10-29T21:25:20.685Z,98792.31
2022-10-29T21:28:22.029Z,98792.31
2022-10-29T21:31:23.503Z,98788.84
2022-10-29T21:34:25.019Z,98793.19
2022-10-29T21:37:26.480Z,98794.06
2022-10-29T21:40:27.855Z,98794.94
2022-10-29T21:43:29.323Z,98794.09
2022-10-29T21:46:30.667Z,98790.59
2022-10-29T21:49:32.048Z,98792.34
2022-10-29T21:52:33.407Z,98789.72
2022-10-29T21:55:34.892Z,98793.19
2022-10-29T21:58:36.234Z,98790.63
2022-10-29T22:01:37.695Z,98794.13
2022-10-29T22:04:39.236Z,98789.75
2022-10-29T22:07:40.552Z,98795.84
2022-10-29T22:10:41.915Z,98782.78
2022-10-29T22:13:43.248Z,98788.91
2022-10-29T22:16:44.613Z,98788.88
2022-10-29T22:19:45.977Z,98787.13
2022-10-29T22:22:47.303Z,98790.59
2022-10-29T22:25:51.626Z,98781.03
2022-10-29T22:28:53.072Z,98777.50
2022-10-29T22:31:54.397Z,98775.78
2022-10-29T22:34:57.501Z,98774.03
2022-10-29T22:41:05.867Z,98774.03
2022-10-29T22:44:07.264Z,98768.84
2022-10-29T22:47:08.762Z,98763.63
2022-10-29T22:50:10.121Z,98762.72
2022-10-29T22:53:11.484Z,98760.09
2022-10-29T22:56:13.938Z,98761.88
2022-10-29T22:59:15.350Z,98769.75
2022-10-29T23:02:16.820Z,98764.47
2022-10-29T23:05:18.224Z,98762.75
2022-10-29T23:08:19.564Z,98750.56
2022-10-29T23:11:24.586Z,98748.84
2022-10-29T23:14:25.970Z,98751.44
2022-10-29T23:17:27.314Z,98752.31
2022-10-29T23:20:28.650Z,98761.00
2022-10-29T23:23:30.072Z,98751.41
2022-10-29T23:26:31.499Z,98750.56
2022-10-29T23:29:32.910Z,98745.31
2022-10-29T23:32:34.237Z,98746.28
2022-10-29T23:35:35.640Z,98734.94
2022-10-29T23:38:37.026Z,98731.47
2022-10-29T23:41:38.376Z,98725.34
2022-10-29T23:44:39.730Z,98718.34
2022-10-29T23:47:41.043Z,98719.25
2022-10-29T23:50:42.440Z,98731.47
2022-10-29T23:53:43.816Z,98718.38
2022-10-29T23:56:45.222Z,98725.38
2022-10-29T23:59:46.569Z,98725.38
